createdAt,value
2023-02-04T00:00:31.859Z,3.50
2023-02-04T00:01:34.377Z,5.45
2023-02-04T00:02:38.215Z,4.45
2023-02-04T00:03:41.240Z,3.53
2023-02-04T00:04:43.595Z,3.08
2023-02-04T00:05:46.024Z,4.15
2023-02-04T00:06:48.456Z,3.83
2023-02-04T00:07:50.810Z,4.32
2023-02-04T00:08:53.137Z,3.47
2023-02-04T00:09:55.481Z,4.95
2023-02-04T00:10:57.812Z,4.13
2023-02-04T00:12:00.135Z,4.10
2023-02-04T00:13:03.313Z,4.72
2023-02-04T00:14:05.781Z,3.20
2023-02-04T00:15:08.718Z,4.38
2023-02-04T00:16:11.183Z,4.97
2023-02-04T00:17:13.690Z,3.67
2023-02-04T00:18:16.013Z,3.70
2023-02-04T00:19:18.315Z,3.47
2023-02-04T00:20:21.016Z,3.45
2023-02-04T00:21:23.363Z,5.65
2023-02-04T00:22:28.196Z,4.00
2023-02-04T00:23:30.576Z,3.78
2023-02-04T00:24:33.021Z,3.63
2023-02-04T00:25:35.351Z,3.70
2023-02-04T00:26:37.625Z,3.70
2023-02-04T00:27:39.988Z,4.03
2023-02-04T00:28:42.590Z,2.72
2023-02-04T00:29:47.222Z,2.92
2023-02-04T00:30:49.465Z,3.35
2023-02-04T00:31:52.559Z,2.53
2023-02-04T00:32:56.464Z,4.03
2023-02-04T00:33:59.637Z,3.38
2023-02-04T00:35:04.625Z,3.13
2023-02-04T00:36:07.166Z,2.90
2023-02-04T00:37:09.944Z,3.22
2023-02-04T00:38:13.709Z,3.60
2023-02-04T00:39:16.217Z,4.47
2023-02-04T00:40:18.730Z,3.70
2023-02-04T00:41:21.411Z,2.88
2023-02-04T00:42:24.074Z,3.97
2023-02-04T00:43:26.390Z,2.95
2023-02-04T00:44:28.757Z,4.65
2023-02-04T00:45:32.569Z,3.30
2023-02-04T00:46:35.194Z,3.03
2023-02-04T00:47:37.477Z,3.45
2023-02-04T00:48:39.880Z,3.53
2023-02-04T00:49:42.200Z,3.80
2023-02-04T00:50:44.493Z,5.60
2023-02-04T00:51:47.401Z,2.65
2023-02-04T00:52:49.851Z,3.15
2023-02-04T00:53:52.193Z,3.63
2023-02-04T00:54:54.585Z,2.65
2023-02-04T00:55:57.789Z,2.80
2023-02-04T00:57:00.124Z,4.32
2023-02-04T00:58:02.462Z,2.88
2023-02-04T00:59:04.767Z,4.13
2023-02-04T01:00:08.513Z,2.55
2023-02-04T01:01:10.798Z,2.97
2023-02-04T01:02:13.115Z,5.03
2023-02-04T01:03:15.471Z,3.30
2023-02-04T01:04:18.071Z,2.75
2023-02-04T01:05:20.494Z,3.22
2023-02-04T01:06:22.944Z,3.70
2023-02-04T01:07:25.944Z,3.30
2023-02-04T01:08:28.556Z,2.75
2023-02-04T01:09:32.478Z,3.08
2023-02-04T01:10:38.002Z,3.20
2023-02-04T01:11:40.462Z,2.65
2023-02-04T01:12:42.767Z,3.03
2023-02-04T01:13:45.407Z,3.42
2023-02-04T01:14:47.826Z,3.28
2023-02-04T01:15:50.330Z,2.30
2023-02-04T01:16:52.906Z,2.85
2023-02-04T01:17:55.237Z,2.25
2023-02-04T01:18:57.729Z,2.80
2023-02-04T01:20:00.388Z,2.05
2023-02-04T01:21:02.838Z,2.75
2023-02-04T01:22:05.117Z,3.22
2023-02-04T01:23:07.862Z,2.65
2023-02-04T01:24:10.167Z,2.58
2023-02-04T01:25:32.441Z,2.03
2023-02-04T01:26:35.403Z,2.47
2023-02-04T01:27:37.813Z,2.40
2023-02-04T01:28:40.111Z,2.17
2023-02-04T01:29:42.884Z,2.35
2023-02-04T01:30:46.231Z,3.15
2023-02-04T01:31:48.838Z,2.90
2023-02-04T01:32:51.299Z,1.55
2023-02-04T01:33:53.813Z,2.65
2023-02-04T01:34:57.243Z,3.30
2023-02-04T01:35:59.629Z,2.03
2023-02-04T01:37:02.162Z,3.42
2023-02-04T01:38:04.517Z,3.15
2023-02-04T01:39:06.836Z,2.33
2023-02-04T01:40:10.378Z,2.92
2023-02-04T01:41:12.702Z,3.17
2023-02-04T01:42:15.128Z,3.63
2023-02-04T01:43:18.293Z,2.00
2023-02-04T01:44:20.833Z,1.58
2023-02-04T01:45:23.278Z,2.35
2023-02-04T01:46:25.767Z,1.67
2023-02-04T01:47:28.170Z,3.22
2023-02-04T01:48:31.076Z,2.42
2023-02-04T01:49:33.529Z,1.73
2023-02-04T01:50:36.070Z,4.70
2023-02-04T01:51:39.447Z,1.52
2023-02-04T01:52:44.211Z,3.83
2023-02-04T01:53:46.569Z,1.50
2023-02-04T01:54:49.259Z,3.70
2023-02-04T01:55:52.776Z,2.17
2023-02-04T01:56:55.467Z,6.65
2023-02-04T01:57:59.529Z,1.45
2023-02-04T01:59:02.201Z,3.05
2023-02-04T02:00:10.685Z,1.92
2023-02-04T02:01:35.690Z,3.53
2023-02-04T02:02:43.892Z,2.40
2023-02-04T02:03:46.282Z,2.17
2023-02-04T02:04:48.597Z,3.95
2023-02-04T02:05:53.492Z,2.00
2023-02-04T02:06:58.875Z,1.42
2023-02-04T02:08:03.354Z,1.83
2023-02-04T02:09:06.138Z,1.75
2023-02-04T02:10:11.441Z,1.17
2023-02-04T02:11:13.781Z,3.92
2023-02-04T02:12:16.071Z,3.15
2023-02-04T02:13:19.643Z,1.55
2023-02-04T02:14:22.738Z,1.67
2023-02-04T02:15:26.596Z,2.45
2023-02-04T02:16:28.935Z,4.18
2023-02-04T02:17:31.401Z,3.90
2023-02-04T02:18:33.885Z,3.13
2023-02-04T02:19:38.133Z,1.92
2023-02-04T02:20:43.532Z,2.13
2023-02-04T02:21:57.130Z,9.07
2023-02-04T02:23:16.591Z,4.18
2023-02-04T02:24:31.091Z,3.75
2023-02-04T02:25:33.615Z,194.25
2023-02-04T02:26:36.180Z,213.90
2023-02-04T02:27:38.973Z,83.00
2023-02-04T02:28:41.725Z,76.30
2023-02-04T02:29:46.208Z,81.65
2023-02-04T02:30:49.722Z,63.38
2023-02-04T02:31:52.962Z,58.13
2023-02-04T02:32:55.712Z,52.00
2023-02-04T02:33:58.180Z,44.00
2023-02-04T02:35:00.691Z,35.78
2023-02-04T02:36:04.587Z,39.60
2023-02-04T02:37:09.004Z,34.90
2023-02-04T02:38:12.439Z,34.50
2023-02-04T02:39:16.846Z,25.48
2023-02-04T02:40:19.860Z,22.85
2023-02-04T02:41:22.167Z,23.02
2023-02-04T02:42:25.957Z,21.08
2023-02-04T02:43:30.403Z,22.05
2023-02-04T02:44:33.484Z,21.48
2023-02-04T02:45:36.109Z,19.92
2023-02-04T02:46:38.762Z,20.70
2023-02-04T02:47:41.115Z,23.88
2023-02-04T02:48:43.519Z,16.48
2023-02-04T02:49:52.796Z,20.38
2023-02-04T02:50:55.289Z,17.73
2023-02-04T02:51:58.181Z,23.17
2023-02-04T02:53:00.911Z,21.10
2023-02-04T02:54:03.249Z,18.02
2023-02-04T02:55:07.969Z,18.13
2023-02-04T02:56:10.639Z,19.25
2023-02-04T02:57:23.641Z,17.48
2023-02-04T02:58:32.185Z,16.23
2023-02-04T02:59:34.603Z,17.23
2023-02-04T03:00:36.888Z,17.15
2023-02-04T03:01:39.408Z,15.82
2023-02-04T03:02:43.179Z,18.85
2023-02-04T03:03:49.805Z,16.00
2023-02-04T03:04:56.509Z,15.15
2023-02-04T03:06:16.899Z,15.65
2023-02-04T03:07:21.415Z,16.23
2023-02-04T03:08:24.053Z,14.88
2023-02-04T03:09:28.173Z,15.65
2023-02-04T03:10:31.149Z,16.10
2023-02-04T03:11:33.842Z,14.95
2023-02-04T03:12:36.217Z,17.00
2023-02-04T03:13:39.104Z,16.00
2023-02-04T03:14:41.606Z,14.40
2023-02-04T03:15:46.807Z,14.05
2023-02-04T03:16:49.396Z,15.23
2023-02-04T03:17:56.357Z,71.25
2023-02-04T03:19:03.039Z,31.90
2023-02-04T03:20:06.070Z,124.05
2023-02-04T03:21:08.564Z,44.45
2023-02-04T03:22:12.479Z,33.40
2023-02-04T03:23:15.356Z,33.17
2023-02-04T03:24:18.394Z,31.02
2023-02-04T03:25:24.390Z,25.52
2023-02-04T03:26:27.257Z,27.00
2023-02-04T03:27:29.770Z,23.52
2023-02-04T03:28:32.608Z,21.75
2023-02-04T03:29:40.631Z,21.90
2023-02-04T03:30:43.006Z,23.33
2023-02-04T03:31:45.381Z,21.08
2023-02-04T03:32:47.898Z,18.88
2023-02-04T03:33:50.249Z,18.75
2023-02-04T03:34:52.505Z,20.88
2023-02-04T03:35:54.957Z,17.55
2023-02-04T03:36:57.254Z,11.45
2023-02-04T03:37:59.877Z,33.45
2023-02-04T03:39:02.684Z,58.95
2023-02-04T03:40:05.420Z,38.08
2023-02-04T03:41:08.053Z,38.53
2023-02-04T03:42:10.450Z,33.15
2023-02-04T03:43:12.808Z,48.50
2023-02-04T03:44:15.127Z,46.17
2023-02-04T03:45:17.440Z,36.47
2023-02-04T03:46:19.856Z,34.47
2023-02-04T03:47:22.194Z,31.70
2023-02-04T03:48:24.527Z,30.90
2023-02-04T03:49:28.343Z,27.45
2023-02-04T03:50:31.027Z,29.35
2023-02-04T03:51:36.373Z,26.48
2023-02-04T03:52:40.005Z,21.02
2023-02-04T03:53:42.240Z,22.67
2023-02-04T03:54:44.502Z,22.15
2023-02-04T03:55:46.793Z,21.13
2023-02-04T03:56:49.170Z,22.33
2023-02-04T03:57:52.016Z,23.58
2023-02-04T03:58:54.336Z,23.52
2023-02-04T03:59:56.807Z,23.30
2023-02-04T04:00:59.324Z,28.58
2023-02-04T04:02:01.684Z,25.35
2023-02-04T04:03:04.148Z,27.77
2023-02-04T04:04:06.432Z,24.17
2023-02-04T04:05:09.540Z,23.05
2023-02-04T04:06:11.876Z,19.60
2023-02-04T04:07:14.195Z,22.17
2023-02-04T04:08:16.510Z,22.83
2023-02-04T04:09:18.793Z,21.33
2023-02-04T04:10:21.126Z,21.92
2023-02-04T04:11:23.515Z,25.75
2023-02-04T04:12:26.015Z,23.17
2023-02-04T04:13:28.291Z,23.20
2023-02-04T04:14:30.891Z,24.73
2023-02-04T04:15:33.182Z,22.60
2023-02-04T04:16:35.526Z,20.38
2023-02-04T04:17:37.926Z,20.65
2023-02-04T04:18:40.506Z,22.85
2023-02-04T04:19:44.803Z,19.95
2023-02-04T04:20:47.098Z,23.95
2023-02-04T04:21:49.331Z,19.73
2023-02-04T04:22:52.305Z,21.20
2023-02-04T04:23:54.567Z,21.10
2023-02-04T04:24:56.783Z,21.02
2023-02-04T04:25:59.183Z,31.05
2023-02-04T04:27:01.495Z,40.65
2023-02-04T04:28:03.982Z,20.98
2023-02-04T04:29:06.305Z,21.02
2023-02-04T04:30:09.232Z,20.52
2023-02-04T04:31:11.846Z,25.63
2023-02-04T04:32:14.486Z,26.17
2023-02-04T04:33:16.810Z,22.85
2023-02-04T04:34:19.104Z,25.05
2023-02-04T04:35:21.521Z,18.95
2023-02-04T04:36:23.821Z,22.15
2023-02-04T04:37:28.903Z,23.92
2023-02-04T04:38:31.160Z,21.55
2023-02-04T04:39:33.475Z,21.10
2023-02-04T04:40:35.787Z,20.48
2023-02-04T04:41:38.108Z,20.75
2023-02-04T04:42:40.455Z,22.23
2023-02-04T04:43:42.768Z,23.13
2023-02-04T04:44:45.086Z,21.02
2023-02-04T04:45:47.365Z,19.77
2023-02-04T04:46:49.700Z,19.50
2023-02-04T04:47:52.060Z,21.27
2023-02-04T04:48:54.595Z,23.48
2023-02-04T04:49:56.882Z,24.17
2023-02-04T04:50:59.112Z,18.50
2023-02-04T04:52:01.369Z,23.80
2023-02-04T04:53:03.635Z,19.92
2023-02-04T04:54:06.127Z,21.55
2023-02-04T04:55:08.795Z,21.35
2023-02-04T04:56:11.108Z,20.48
2023-02-04T04:57:13.441Z,22.50
2023-02-04T04:58:15.833Z,22.38
2023-02-04T04:59:18.125Z,20.38
2023-02-04T05:00:22.075Z,20.52
2023-02-04T05:01:24.477Z,20.27
2023-02-04T05:02:27.006Z,20.27
2023-02-04T05:03:29.265Z,18.92
2023-02-04T05:04:31.574Z,18.13
2023-02-04T05:05:39.776Z,21.00
2023-02-04T05:06:42.208Z,18.35
2023-02-04T05:07:44.842Z,18.63
2023-02-04T05:08:47.206Z,18.20
2023-02-04T05:09:49.527Z,17.63
2023-02-04T05:10:52.100Z,19.05
2023-02-04T05:11:54.428Z,22.30
2023-02-04T05:12:57.040Z,20.27
2023-02-04T05:13:59.318Z,21.45
2023-02-04T05:15:01.634Z,19.30
2023-02-04T05:16:04.214Z,17.17
2023-02-04T05:17:06.816Z,20.48
2023-02-04T05:18:09.252Z,18.20
2023-02-04T05:19:12.006Z,21.20
2023-02-04T05:20:14.472Z,18.35
2023-02-04T05:21:16.881Z,17.50
2023-02-04T05:22:19.210Z,16.83
2023-02-04T05:23:21.494Z,17.15
2023-02-04T05:24:24.057Z,19.95
2023-02-04T05:25:26.747Z,17.15
2023-02-04T05:26:31.089Z,17.60
2023-02-04T05:27:33.783Z,15.63
2023-02-04T05:28:36.299Z,16.38
2023-02-04T05:29:38.592Z,17.08
2023-02-04T05:30:41.263Z,18.13
2023-02-04T05:31:43.606Z,18.23
2023-02-04T05:32:46.064Z,18.42
2023-02-04T05:33:48.597Z,17.63
2023-02-04T05:34:50.832Z,18.02
2023-02-04T05:35:53.294Z,15.35
2023-02-04T05:36:55.558Z,16.00
2023-02-04T05:37:57.984Z,19.58
2023-02-04T05:39:00.314Z,15.88
2023-02-04T05:40:02.816Z,16.30
2023-02-04T05:41:05.259Z,15.98
2023-02-04T05:42:07.484Z,17.88
2023-02-04T05:43:09.816Z,17.67
2023-02-04T05:44:12.346Z,16.48
2023-02-04T05:45:17.210Z,14.82
2023-02-04T05:46:19.611Z,16.80
2023-02-04T05:47:21.946Z,19.02
2023-02-04T05:48:24.289Z,17.73
2023-02-04T05:49:26.570Z,17.85
2023-02-04T05:50:29.334Z,13.23
2023-02-04T05:51:43.911Z,15.30
2023-02-04T05:52:46.510Z,16.45
2023-02-04T05:53:49.550Z,17.25
2023-02-04T05:54:51.835Z,16.33
2023-02-04T05:55:54.328Z,15.80
2023-02-04T05:56:56.635Z,17.77
2023-02-04T05:57:58.979Z,17.88
2023-02-04T05:59:01.279Z,15.15
2023-02-04T06:00:04.377Z,21.90
2023-02-04T06:01:14.216Z,42.65
2023-02-04T06:02:16.566Z,40.00
2023-02-04T06:03:19.489Z,29.30
2023-02-04T06:04:21.995Z,30.30
2023-02-04T06:05:24.327Z,27.55
2023-02-04T06:06:26.587Z,26.48
2023-02-04T06:07:28.881Z,31.92
2023-02-04T06:08:31.169Z,19.67
2023-02-04T06:09:33.593Z,24.85
2023-02-04T06:10:35.950Z,19.33
2023-02-04T06:11:38.456Z,19.52
2023-02-04T06:12:40.762Z,20.10
2023-02-04T06:13:43.047Z,20.13
2023-02-04T06:14:45.311Z,18.67
2023-02-04T06:15:47.660Z,20.33
2023-02-04T06:16:50.205Z,17.67
2023-02-04T06:17:53.267Z,18.40
2023-02-04T06:18:55.603Z,21.25
2023-02-04T06:19:57.855Z,17.33
2023-02-04T06:21:00.795Z,19.27
2023-02-04T06:22:03.118Z,19.77
2023-02-04T06:23:05.453Z,17.15
2023-02-04T06:24:07.826Z,20.42
2023-02-04T06:25:10.364Z,14.73
2023-02-04T06:26:12.664Z,18.17
2023-02-04T06:27:15.039Z,16.35
2023-02-04T06:28:17.764Z,16.67
2023-02-04T06:29:20.094Z,16.25
2023-02-04T06:30:22.466Z,15.27
2023-02-04T06:31:24.890Z,16.40
2023-02-04T06:32:27.287Z,15.13
2023-02-04T06:33:29.644Z,19.85
2023-02-04T06:34:31.963Z,35.25
2023-02-04T06:35:34.213Z,25.95
2023-02-04T06:36:36.753Z,23.08
2023-02-04T06:37:39.477Z,21.02
2023-02-04T06:38:41.821Z,25.25
2023-02-04T06:39:44.445Z,18.30
2023-02-04T06:40:53.442Z,20.98
2023-02-04T06:41:55.783Z,19.80
2023-02-04T06:42:58.154Z,17.95
2023-02-04T06:44:00.521Z,16.10
2023-02-04T06:45:03.462Z,22.35
2023-02-04T06:46:05.959Z,19.17
2023-02-04T06:47:08.482Z,20.77
2023-02-04T06:48:11.133Z,20.55
2023-02-04T06:49:13.554Z,18.23
2023-02-04T06:50:18.746Z,16.42
2023-02-04T06:51:21.139Z,17.90
2023-02-04T06:52:23.631Z,18.00
2023-02-04T06:53:25.949Z,19.23
2023-02-04T06:54:28.388Z,16.90
2023-02-04T06:55:30.732Z,16.88
2023-02-04T06:56:33.110Z,20.02
2023-02-04T06:57:35.409Z,18.00
2023-02-04T06:58:38.039Z,16.35
2023-02-04T06:59:41.304Z,18.50
2023-02-04T07:00:43.590Z,19.08
2023-02-04T07:01:46.227Z,16.83
2023-02-04T07:02:48.858Z,18.50
2023-02-04T07:03:51.198Z,16.60
2023-02-04T07:04:53.514Z,18.48
2023-02-04T07:05:55.760Z,16.08
2023-02-04T07:06:58.046Z,17.15
2023-02-04T07:08:00.696Z,16.50
2023-02-04T07:09:03.334Z,51.55
2023-02-04T07:10:05.880Z,84.15
2023-02-04T07:11:08.158Z,39.08
2023-02-04T07:12:10.450Z,34.72
2023-02-04T07:13:12.747Z,33.90
2023-02-04T07:14:15.326Z,33.17
2023-02-04T07:15:17.653Z,36.13
2023-02-04T07:16:19.948Z,29.30
2023-02-04T07:17:23.622Z,27.27
2023-02-04T07:18:25.852Z,23.00
2023-02-04T07:19:28.154Z,21.95
2023-02-04T07:20:30.868Z,24.08
2023-02-04T07:21:33.347Z,19.98
2023-02-04T07:22:35.686Z,20.10
2023-02-04T07:23:37.918Z,18.90
2023-02-04T07:24:40.876Z,19.73
2023-02-04T07:25:44.170Z,24.38
2023-02-04T07:26:46.572Z,18.08
2023-02-04T07:27:49.073Z,16.75
2023-02-04T07:28:52.288Z,21.13
2023-02-04T07:29:54.593Z,18.65
2023-02-04T07:30:57.156Z,17.75
2023-02-04T07:31:59.655Z,21.70
2023-02-04T07:33:02.048Z,55.05
2023-02-04T07:34:04.384Z,36.47
2023-02-04T07:35:07.180Z,39.22
2023-02-04T07:36:09.506Z,34.13
2023-02-04T07:37:12.366Z,39.42
2023-02-04T07:38:14.696Z,36.38
2023-02-04T07:39:17.086Z,30.00
2023-02-04T07:40:19.499Z,28.58
2023-02-04T07:41:22.057Z,28.42
2023-02-04T07:42:24.404Z,25.40
2023-02-04T07:43:34.472Z,23.67
2023-02-04T07:44:37.578Z,23.45
2023-02-04T07:45:39.862Z,26.58
2023-02-04T07:46:42.173Z,22.02
2023-02-04T07:47:44.610Z,22.20
2023-02-04T07:48:47.029Z,22.48
2023-02-04T07:49:49.432Z,22.75
2023-02-04T07:50:51.713Z,20.65
2023-02-04T07:51:54.064Z,26.13
2023-02-04T07:52:56.342Z,23.08
2023-02-04T07:53:58.680Z,19.23
2023-02-04T07:55:01.065Z,21.70
2023-02-04T07:56:03.515Z,20.77
2023-02-04T07:57:05.793Z,22.65
2023-02-04T07:58:08.119Z,23.17
2023-02-04T07:59:10.435Z,19.60
2023-02-04T08:00:14.403Z,21.45
2023-02-04T08:01:17.075Z,21.45
2023-02-04T08:02:19.488Z,21.27
2023-02-04T08:03:21.903Z,21.75
2023-02-04T08:04:24.424Z,20.08
2023-02-04T08:05:26.945Z,17.77
2023-02-04T08:06:29.352Z,20.25
2023-02-04T08:07:31.751Z,19.95
2023-02-04T08:08:34.175Z,21.77
2023-02-04T08:09:36.550Z,17.75
2023-02-04T08:10:39.078Z,17.75
2023-02-04T08:11:41.477Z,17.60
2023-02-04T08:12:43.795Z,14.30
2023-02-04T08:13:46.128Z,20.52
2023-02-04T08:14:48.411Z,14.27
2023-02-04T08:15:50.875Z,11.55
2023-02-04T08:16:53.341Z,14.30
2023-02-04T08:17:55.694Z,14.60
2023-02-04T08:18:58.227Z,12.30
2023-02-04T08:20:00.612Z,12.65
2023-02-04T08:21:04.738Z,14.45
2023-02-04T08:22:07.137Z,14.27
2023-02-04T08:23:09.642Z,10.52
2023-02-04T08:24:13.234Z,14.43
2023-02-04T08:25:15.994Z,14.35
2023-02-04T08:26:18.259Z,11.90
2023-02-04T08:27:20.636Z,12.52
2023-02-04T08:28:22.924Z,12.57
2023-02-04T08:29:28.279Z,7.35
2023-02-04T08:30:31.051Z,7.88
2023-02-04T08:31:33.907Z,10.07
2023-02-04T08:32:36.457Z,9.07
2023-02-04T08:33:39.742Z,5.43
2023-02-04T08:34:42.247Z,4.50
2023-02-04T08:35:44.667Z,5.93
2023-02-04T08:36:47.008Z,3.63
2023-02-04T08:37:49.458Z,5.45
2023-02-04T08:38:51.778Z,5.07
2023-02-04T08:39:54.299Z,5.28
2023-02-04T08:40:56.628Z,7.07
2023-02-04T08:41:59.120Z,5.20
2023-02-04T08:43:01.548Z,3.88
2023-02-04T08:44:04.321Z,4.28
2023-02-04T08:45:07.786Z,5.93
2023-02-04T08:46:10.367Z,5.30
2023-02-04T08:47:12.748Z,4.93
2023-02-04T08:48:15.397Z,5.22
2023-02-04T08:49:18.011Z,9.50
2023-02-04T08:50:20.326Z,4.68
2023-02-04T08:51:22.729Z,5.95
2023-02-04T08:52:25.051Z,3.83
2023-02-04T08:53:27.425Z,6.22
2023-02-04T08:54:29.862Z,3.90
2023-02-04T08:55:32.519Z,6.13
2023-02-04T08:56:37.165Z,7.70
2023-02-04T08:57:40.313Z,6.93
2023-02-04T08:58:44.034Z,5.55
2023-02-04T08:59:46.417Z,4.13
2023-02-04T09:00:48.976Z,2.88
2023-02-04T09:01:52.605Z,4.22
2023-02-04T09:02:55.126Z,6.22
2023-02-04T09:03:57.506Z,3.85
2023-02-04T09:04:59.790Z,5.45
2023-02-04T09:06:02.086Z,6.68
2023-02-04T09:07:04.425Z,4.68
2023-02-04T09:08:06.904Z,4.13
2023-02-04T09:09:09.390Z,5.90
2023-02-04T09:10:11.741Z,4.13
2023-02-04T09:11:14.883Z,4.40
2023-02-04T09:12:17.235Z,6.88
2023-02-04T09:13:19.495Z,3.65
2023-02-04T09:14:21.879Z,4.50
2023-02-04T09:15:24.969Z,7.97
2023-02-04T09:16:27.308Z,5.28
2023-02-04T09:17:29.818Z,3.80
2023-02-04T09:18:32.692Z,3.42
2023-02-04T09:19:35.027Z,4.50
2023-02-04T09:20:39.088Z,2.85
2023-02-04T09:21:41.406Z,3.15
2023-02-04T09:22:43.655Z,3.78
2023-02-04T09:23:46.760Z,4.45
2023-02-04T09:24:49.111Z,5.35
2023-02-04T09:25:51.818Z,3.95
2023-02-04T09:26:54.118Z,5.70
2023-02-04T09:27:56.500Z,4.28
2023-02-04T09:28:58.986Z,4.32
2023-02-04T09:30:01.322Z,5.68
2023-02-04T09:31:04.656Z,3.63
2023-02-04T09:32:07.365Z,5.88
2023-02-04T09:33:11.615Z,3.67
2023-02-04T09:34:13.894Z,3.53
2023-02-04T09:35:16.296Z,5.07
2023-02-04T09:36:18.676Z,7.47
2023-02-04T09:37:21.199Z,22.58
2023-02-04T09:38:23.590Z,78.15
2023-02-04T09:39:25.912Z,43.88
2023-02-04T09:40:32.196Z,37.40
2023-02-04T09:41:35.917Z,27.38
2023-02-04T09:42:38.822Z,26.02
2023-02-04T09:43:44.093Z,18.70
2023-02-04T09:44:46.520Z,18.27
2023-02-04T09:45:49.566Z,16.65
2023-02-04T09:46:55.646Z,15.18
2023-02-04T09:47:59.834Z,16.45
2023-02-04T09:49:03.510Z,19.17
2023-02-04T09:50:06.110Z,16.20
2023-02-04T09:51:08.786Z,14.05
2023-02-04T09:52:14.006Z,17.63
2023-02-04T09:53:21.262Z,17.50
2023-02-04T09:54:25.071Z,17.05
2023-02-04T09:55:33.818Z,18.92
2023-02-04T09:56:36.215Z,23.25
2023-02-04T09:57:38.539Z,19.70
2023-02-04T09:58:41.895Z,16.65
2023-02-04T09:59:46.526Z,16.77
2023-02-04T10:00:58.479Z,18.95
2023-02-04T10:02:02.802Z,14.93
2023-02-04T10:03:16.891Z,19.80
2023-02-04T10:04:20.342Z,20.70
2023-02-04T10:05:29.541Z,16.55
2023-02-04T10:06:32.305Z,16.38
2023-02-04T10:07:35.264Z,15.23
2023-02-04T10:08:37.685Z,13.65
2023-02-04T10:09:40.632Z,15.13
2023-02-04T10:10:44.931Z,15.60
2023-02-04T10:11:48.615Z,16.45
2023-02-04T10:12:57.077Z,28.83
2023-02-04T10:13:59.453Z,16.88
2023-02-04T10:15:03.802Z,16.80
2023-02-04T10:16:14.191Z,19.40
2023-02-04T10:17:22.417Z,18.30
2023-02-04T10:18:33.791Z,16.77
2023-02-04T10:20:38.290Z,16.00
2023-02-04T10:21:41.945Z,13.57
2023-02-04T10:22:45.200Z,14.50
2023-02-04T10:23:50.041Z,15.02
2023-02-04T10:24:52.483Z,13.25
2023-02-04T10:25:54.835Z,13.55
2023-02-04T10:27:11.752Z,13.82
2023-02-04T10:28:14.124Z,16.08
2023-02-04T10:29:18.845Z,14.23
2023-02-04T10:30:21.550Z,24.42
2023-02-04T10:31:37.930Z,14.55
2023-02-04T10:32:40.390Z,14.25
2023-02-04T10:33:42.745Z,10.43
2023-02-04T10:34:45.275Z,14.85
2023-02-04T10:35:50.400Z,11.77
2023-02-04T10:36:57.498Z,13.63
2023-02-04T10:38:06.884Z,10.65
2023-02-04T10:39:22.370Z,9.15
2023-02-04T10:40:31.012Z,13.07
2023-02-04T10:41:38.532Z,12.05
2023-02-04T10:42:50.052Z,23.52
2023-02-04T10:44:12.926Z,43.42
2023-02-04T10:45:29.635Z,59.80
2023-02-04T10:46:33.497Z,41.20
2023-02-04T10:47:35.920Z,31.30
2023-02-04T10:48:42.157Z,21.67
2023-02-04T10:49:58.950Z,19.40
2023-02-04T10:51:01.306Z,18.52
2023-02-04T10:52:17.172Z,19.75
2023-02-04T10:53:40.665Z,17.08
2023-02-04T10:54:43.635Z,16.90
2023-02-04T10:55:47.460Z,18.70
2023-02-04T10:56:50.087Z,17.45
2023-02-04T10:57:53.531Z,14.68
2023-02-04T10:58:55.903Z,23.33
2023-02-04T11:00:01.338Z,10.85
2023-02-04T11:01:03.930Z,19.23
2023-02-04T11:02:38.302Z,14.23
2023-02-04T11:03:41.423Z,18.67
2023-02-04T11:04:43.854Z,15.77
2023-02-04T11:05:46.208Z,13.73
2023-02-04T11:06:48.569Z,12.27
2023-02-04T11:07:51.293Z,10.32
2023-02-04T11:08:55.227Z,16.17
2023-02-04T11:09:57.895Z,12.45
2023-02-04T11:11:08.859Z,14.82
2023-02-04T11:12:22.298Z,14.20
2023-02-04T11:13:27.961Z,10.25
2023-02-04T11:14:30.405Z,17.95
2023-02-04T11:15:47.901Z,10.77
2023-02-04T11:16:52.006Z,293.58
2023-02-04T11:18:12.649Z,196.45
2023-02-04T11:19:16.377Z,141.25
2023-02-04T11:20:32.651Z,133.48
2023-02-04T11:21:35.120Z,96.45
2023-02-04T11:22:43.812Z,86.15
2023-02-04T11:23:46.266Z,82.32
2023-02-04T11:24:49.306Z,75.40
2023-02-04T11:26:04.178Z,70.68
2023-02-04T11:27:19.575Z,66.05
2023-02-04T11:28:26.193Z,58.35
2023-02-04T11:29:38.608Z,51.70
2023-02-04T11:30:41.356Z,51.13
2023-02-04T11:31:49.715Z,48.42
2023-02-04T11:33:06.488Z,46.13
2023-02-04T11:34:25.961Z,46.20
2023-02-04T11:35:30.155Z,38.50
2023-02-04T11:36:32.559Z,38.92
2023-02-04T11:37:38.948Z,45.15
2023-02-04T11:38:46.541Z,44.00
2023-02-04T11:39:50.460Z,46.00
2023-02-04T11:40:57.225Z,41.03
2023-02-04T11:42:00.726Z,44.97
2023-02-04T11:43:15.719Z,41.95
2023-02-04T11:44:19.327Z,38.10
2023-02-04T11:45:31.702Z,38.25
2023-02-04T11:46:34.299Z,39.05
2023-02-04T11:47:37.179Z,39.55
2023-02-04T11:48:39.983Z,38.53
2023-02-04T11:49:42.819Z,34.40
2023-02-04T11:51:00.052Z,36.15
2023-02-04T11:52:08.770Z,37.25
2023-02-04T11:53:12.133Z,41.92
2023-02-04T11:54:18.871Z,32.10
2023-02-04T11:55:21.512Z,33.20
2023-02-04T11:56:23.969Z,32.40
2023-02-04T11:57:27.292Z,34.80
2023-02-04T11:58:30.997Z,32.53
2023-02-04T11:59:33.451Z,28.88
2023-02-04T12:00:36.299Z,32.75
2023-02-04T12:01:39.225Z,60.85
2023-02-04T12:02:49.648Z,98.90
2023-02-04T12:03:58.748Z,134.68
2023-02-04T12:05:13.333Z,132.55
2023-02-04T12:06:29.685Z,101.85
2023-02-04T12:07:31.977Z,83.60
2023-02-04T12:08:36.674Z,72.25
2023-02-04T12:09:47.398Z,68.15
2023-02-04T12:11:00.219Z,63.20
2023-02-04T12:12:04.540Z,53.75
2023-02-04T12:13:18.444Z,55.15
2023-02-04T12:14:21.250Z,48.25
2023-02-04T12:15:33.478Z,42.45
2023-02-04T12:16:45.929Z,44.45
2023-02-04T12:18:04.654Z,44.83
2023-02-04T12:19:07.063Z,45.47
2023-02-04T12:20:10.060Z,37.53
2023-02-04T12:21:14.296Z,44.88
2023-02-04T12:22:17.200Z,41.58
2023-02-04T12:23:19.715Z,45.28
2023-02-04T12:24:22.096Z,39.05
2023-02-04T12:25:24.969Z,44.72
2023-02-04T12:26:27.306Z,42.47
2023-02-04T12:27:29.609Z,40.78
2023-02-04T12:28:31.973Z,35.17
2023-02-04T12:29:34.322Z,39.88
2023-02-04T12:30:36.722Z,36.20
2023-02-04T12:31:39.187Z,35.20
2023-02-04T12:32:41.727Z,35.45
2023-02-04T12:33:44.023Z,34.53
2023-02-04T12:34:46.396Z,40.75
2023-02-04T12:35:49.176Z,40.00
2023-02-04T12:36:51.516Z,36.28
2023-02-04T12:37:53.907Z,34.45
2023-02-04T12:38:59.031Z,37.28
2023-02-04T12:40:01.361Z,40.03
2023-02-04T12:41:03.820Z,35.70
2023-02-04T12:42:06.178Z,38.45
2023-02-04T12:43:08.840Z,33.40
2023-02-04T12:44:11.202Z,35.55
2023-02-04T12:45:15.888Z,38.17
2023-02-04T12:46:18.607Z,37.67
2023-02-04T12:47:20.899Z,35.53
2023-02-04T12:48:23.266Z,36.17
2023-02-04T12:49:26.444Z,31.13
2023-02-04T12:50:28.958Z,35.67
2023-02-04T12:51:31.308Z,37.67
2023-02-04T12:52:33.903Z,33.50
2023-02-04T12:53:36.217Z,30.90
2023-02-04T12:54:38.484Z,31.23
2023-02-04T12:55:40.903Z,28.58
2023-02-04T12:56:43.255Z,34.72
2023-02-04T12:57:45.860Z,31.70
2023-02-04T12:58:48.255Z,31.65
2023-02-04T12:59:50.798Z,33.67
2023-02-04T13:00:53.248Z,31.60
2023-02-04T13:01:55.617Z,31.15
2023-02-04T13:03:00.926Z,31.45
2023-02-04T13:04:03.325Z,30.10
2023-02-04T13:05:06.012Z,29.17
2023-02-04T13:06:08.380Z,28.00
2023-02-04T13:07:10.943Z,32.60
2023-02-04T13:08:13.238Z,27.83
2023-02-04T13:09:15.589Z,30.02
2023-02-04T13:10:18.161Z,28.05
2023-02-04T13:11:20.399Z,31.98
2023-02-04T13:12:22.802Z,28.02
2023-02-04T13:13:25.275Z,28.90
2023-02-04T13:14:27.610Z,27.95
2023-02-04T13:15:29.971Z,25.92
2023-02-04T13:16:32.457Z,28.42
2023-02-04T13:17:34.924Z,27.50
2023-02-04T13:18:37.221Z,30.23
2023-02-04T13:19:39.563Z,27.85
2023-02-04T13:20:42.361Z,29.17
2023-02-04T13:21:44.743Z,28.67
2023-02-04T13:22:47.103Z,25.00
2023-02-04T13:23:49.831Z,27.65
2023-02-04T13:24:52.313Z,28.27
2023-02-04T13:25:54.621Z,27.88
2023-02-04T13:26:57.171Z,28.88
2023-02-04T13:27:59.713Z,24.90
2023-02-04T13:29:02.055Z,24.33
2023-02-04T13:30:06.669Z,26.67
2023-02-04T13:31:09.019Z,26.60
2023-02-04T13:32:11.634Z,24.85
2023-02-04T13:33:13.902Z,23.35
2023-02-04T13:34:16.375Z,28.80
2023-02-04T13:35:19.396Z,25.50
2023-02-04T13:36:21.744Z,27.02
2023-02-04T13:37:24.119Z,26.10
2023-02-04T13:38:26.499Z,29.25
2023-02-04T13:39:28.863Z,25.38
2023-02-04T13:40:31.237Z,24.13
2023-02-04T13:41:33.644Z,27.58
2023-02-04T13:42:36.066Z,24.48
2023-02-04T13:43:38.392Z,23.95
2023-02-04T13:44:40.807Z,25.77
2023-02-04T13:45:47.579Z,29.35
2023-02-04T13:46:50.103Z,27.65
2023-02-04T13:47:52.543Z,24.98